createdAt,value
2023-09-02T00:03:42.350Z,55.21
2023-09-02T00:06:10.912Z,55.19
2023-09-02T00:08:39.346Z,55.19
2023-09-02T00:11:07.845Z,55.06
2023-09-02T00:13:36.088Z,55.15
2023-09-02T00:16:04.636Z,55.01
2023-09-02T00:18:33.126Z,54.86
2023-09-02T00:21:01.492Z,54.77
2023-09-02T00:23:29.891Z,54.64
2023-09-02T00:25:59.068Z,54.64
2023-09-02T00:28:27.576Z,54.45
2023-09-02T00:30:55.880Z,54.42
2023-09-02T00:33:24.316Z,54.52
2023-09-02T00:35:53.138Z,54.40
2023-09-02T00:38:21.503Z,54.38
2023-09-02T00:41:00.573Z,54.41
2023-09-02T00:43:30.655Z,54.30
2023-09-02T00:45:59.896Z,54.40
2023-09-02T00:48:28.453Z,54.49
2023-09-02T00:50:57.276Z,54.42
2023-09-02T00:53:25.655Z,54.40
2023-09-02T00:55:54.599Z,54.28
2023-09-02T00:58:23.211Z,54.31
2023-09-02T01:00:53.020Z,54.22
2023-09-02T01:03:21.567Z,54.27
2023-09-02T01:05:51.608Z,54.16
2023-09-02T01:08:20.050Z,54.17
2023-09-02T01:10:49.312Z,54.19
2023-09-02T01:13:17.859Z,54.25
2023-09-02T01:15:46.921Z,54.08
2023-09-02T01:18:15.594Z,53.98
2023-09-02T01:21:11.042Z,53.87
2023-09-02T01:24:25.327Z,54.00
2023-09-02T01:27:20.865Z,54.06
2023-09-02T01:30:02.862Z,54.05
2023-09-02T01:32:37.624Z,54.03
2023-09-02T01:35:08.018Z,54.02
2023-09-02T01:37:41.145Z,53.95
2023-09-02T01:40:16.587Z,54.09
2023-09-02T01:42:45.326Z,54.09
2023-09-02T01:45:14.427Z,54.16
2023-09-02T01:47:43.384Z,54.18
2023-09-02T01:50:14.360Z,54.22
2023-09-02T01:52:43.512Z,54.22
2023-09-02T01:55:12.524Z,54.25
2023-09-02T01:57:42.575Z,54.31
2023-09-02T02:00:11.558Z,54.32
2023-09-02T02:02:41.396Z,54.41
2023-09-02T02:05:14.399Z,54.36
2023-09-02T02:07:46.355Z,54.32
2023-09-02T02:10:21.422Z,54.42
2023-09-02T02:12:50.227Z,54.48
2023-09-02T02:15:18.545Z,54.51
2023-09-02T02:17:46.935Z,54.50
2023-09-02T02:20:16.395Z,54.60
2023-09-02T02:22:44.703Z,54.57
2023-09-02T02:25:12.988Z,54.59
2023-09-02T02:27:42.151Z,54.59
2023-09-02T02:30:11.257Z,54.55
2023-09-02T02:32:39.569Z,54.46
2023-09-02T02:35:08.736Z,54.38
2023-09-02T02:37:36.995Z,54.44
2023-09-02T02:40:06.601Z,54.44
2023-09-02T02:42:35.090Z,54.33
2023-09-02T02:45:03.397Z,54.31
2023-09-02T02:47:31.851Z,54.25
2023-09-02T02:50:00.406Z,54.20
2023-09-02T02:52:29.491Z,54.20
2023-09-02T02:54:58.326Z,54.20
2023-09-02T02:57:27.168Z,54.15
2023-09-02T02:59:55.503Z,54.22
2023-09-02T03:02:24.704Z,54.27
2023-09-02T03:04:53.627Z,54.24
2023-09-02T03:07:22.685Z,54.13
2023-09-02T03:09:51.284Z,54.20
2023-09-02T03:12:19.733Z,54.25
2023-09-02T03:14:48.114Z,54.18
2023-09-02T03:17:16.791Z,53.96
2023-09-02T03:19:45.603Z,53.95
2023-09-02T03:22:14.805Z,53.87
2023-09-02T03:24:43.107Z,53.83
2023-09-02T03:27:11.858Z,53.60
2023-09-02T03:29:40.226Z,53.59
2023-09-02T03:32:08.669Z,53.39
2023-09-02T03:34:37.024Z,53.20
2023-09-02T03:37:05.275Z,53.15
2023-09-02T03:39:33.746Z,52.99
2023-09-02T03:42:02.527Z,52.94
2023-09-02T03:44:30.821Z,52.89
2023-09-02T03:46:59.228Z,52.77
2023-09-02T03:49:27.799Z,52.86
2023-09-02T03:51:56.122Z,52.79
2023-09-02T03:54:24.500Z,52.89
2023-09-02T03:56:53.056Z,52.83
2023-09-02T03:59:22.469Z,52.88
2023-09-02T04:01:50.922Z,53.00
2023-09-02T04:04:19.732Z,53.16
2023-09-02T04:06:48.065Z,53.23
2023-09-02T04:09:16.552Z,53.26
2023-09-02T04:11:44.888Z,53.16
2023-09-02T04:14:13.160Z,53.34
2023-09-02T04:16:41.464Z,53.54
2023-09-02T04:19:10.073Z,53.54
2023-09-02T04:21:38.608Z,53.62
2023-09-02T04:24:07.313Z,53.56
2023-09-02T04:26:35.894Z,53.72
2023-09-02T04:29:04.170Z,53.81
2023-09-02T04:31:32.698Z,53.83
2023-09-02T04:34:01.275Z,53.90
2023-09-02T04:36:30.210Z,53.97
2023-09-02T04:38:58.480Z,53.92
2023-09-02T04:41:26.721Z,54.00
2023-09-02T04:43:55.002Z,53.77
2023-09-02T04:46:23.411Z,53.97
2023-09-02T04:48:51.804Z,53.83
2023-09-02T04:51:20.115Z,53.85
2023-09-02T04:53:48.451Z,53.77
2023-09-02T04:56:17.216Z,53.81
2023-09-02T04:58:45.476Z,53.74
2023-09-02T05:01:14.896Z,53.77
2023-09-02T05:03:44.499Z,53.78
2023-09-02T05:06:12.886Z,53.73
2023-09-02T05:08:41.327Z,53.76
2023-09-02T05:11:10.457Z,53.68
2023-09-02T05:13:38.874Z,53.73
2023-09-02T05:16:07.224Z,53.74
2023-09-02T05:18:35.803Z,53.83
2023-09-02T05:21:04.216Z,53.88
2023-09-02T05:23:33.935Z,53.82
2023-09-02T05:26:02.701Z,53.82
2023-09-02T05:28:31.063Z,53.86
2023-09-02T05:30:59.458Z,53.87
2023-09-02T05:33:27.881Z,53.94
2023-09-02T05:35:56.254Z,53.87
2023-09-02T05:38:24.594Z,53.94
2023-09-02T05:40:53.114Z,54.06
2023-09-02T05:43:21.617Z,54.02
2023-09-02T05:45:49.984Z,54.03
2023-09-02T05:48:19.131Z,54.11
2023-09-02T05:50:47.426Z,54.06
2023-09-02T05:53:15.769Z,54.14
2023-09-02T05:55:53.180Z,54.12
2023-09-02T05:58:23.785Z,54.23
2023-09-02T06:00:52.145Z,54.22
2023-09-02T06:03:21.334Z,54.16
2023-09-02T06:05:50.643Z,54.17
2023-09-02T06:08:18.904Z,54.27
2023-09-02T06:10:57.838Z,54.19
2023-09-02T06:13:26.826Z,54.26
2023-09-02T06:16:01.803Z,54.29
2023-09-02T06:18:31.446Z,54.34
2023-09-02T06:21:00.420Z,54.36
2023-09-02T06:23:28.917Z,54.42
2023-09-02T06:26:02.279Z,54.42
2023-09-02T06:28:31.672Z,54.50
2023-09-02T06:30:59.940Z,54.39
2023-09-02T06:33:28.300Z,54.47
2023-09-02T06:35:56.669Z,54.38
2023-09-02T06:38:25.078Z,54.45
2023-09-02T06:40:53.398Z,54.51
2023-09-02T06:43:22.365Z,54.58
2023-09-02T06:45:50.648Z,54.62
2023-09-02T06:48:18.908Z,54.68
2023-09-02T06:50:47.487Z,54.64
2023-09-02T06:53:16.144Z,54.64
2023-09-02T06:55:44.993Z,54.72
2023-09-02T06:58:13.748Z,54.65
2023-09-02T07:00:42.505Z,54.60
2023-09-02T07:03:11.200Z,54.63
2023-09-02T07:05:40.411Z,54.68
2023-09-02T07:08:09.333Z,54.75
2023-09-02T07:10:37.647Z,55.58
2023-09-02T07:13:06.154Z,57.57
2023-09-02T07:15:35.023Z,60.92
2023-09-02T07:18:05.678Z,64.26
2023-09-02T07:20:37.292Z,69.41
2023-09-02T07:23:05.914Z,71.95
2023-09-02T07:25:34.214Z,72.93
2023-09-02T07:28:02.580Z,75.21
2023-09-02T07:30:30.865Z,75.55
2023-09-02T07:32:59.187Z,75.25
2023-09-02T07:35:27.940Z,75.74
2023-09-02T07:37:56.396Z,76.99
2023-09-02T07:40:24.754Z,78.55
2023-09-02T07:42:53.123Z,79.55
2023-09-02T07:45:21.431Z,78.05
2023-09-02T07:47:50.491Z,77.67
2023-09-02T07:50:19.744Z,78.27
2023-09-02T07:52:49.730Z,78.36
2023-09-02T07:55:19.154Z,78.81
2023-09-02T07:57:47.735Z,78.44
2023-09-02T08:00:16.179Z,78.04
2023-09-02T08:02:44.574Z,77.36
2023-09-02T08:05:13.932Z,77.16
2023-09-02T08:07:42.240Z,76.71
2023-09-02T08:10:11.197Z,76.67
2023-09-02T08:12:41.360Z,76.58
2023-09-02T08:15:12.568Z,76.66
2023-09-02T08:17:44.505Z,76.96
2023-09-02T08:20:13.425Z,76.83
2023-09-02T08:22:41.728Z,77.03
2023-09-02T08:25:11.383Z,77.18
2023-09-02T08:27:39.800Z,77.00
2023-09-02T08:30:09.220Z,77.11
2023-09-02T08:32:37.702Z,77.02
2023-09-02T08:35:08.169Z,77.28
2023-09-02T08:37:37.127Z,77.46
2023-09-02T08:40:07.032Z,77.56
2023-09-02T08:42:36.162Z,77.51
2023-09-02T08:45:09.581Z,77.56
2023-09-02T08:47:41.328Z,77.57
2023-09-02T08:50:11.824Z,77.62
2023-09-02T08:52:41.581Z,77.85
2023-09-02T08:55:12.986Z,77.91
2023-09-02T08:57:43.948Z,78.04
2023-09-02T09:00:13.183Z,78.12
2023-09-02T09:02:44.430Z,78.27
2023-09-02T09:05:14.182Z,78.32
2023-09-02T09:07:43.155Z,78.29
2023-09-02T09:10:15.715Z,78.33
2023-09-02T09:12:44.774Z,78.42
2023-09-02T09:15:17.422Z,78.38
2023-09-02T09:17:46.643Z,78.55
2023-09-02T09:20:16.689Z,78.47
2023-09-02T09:22:45.600Z,78.53
2023-09-02T09:25:14.954Z,78.51
2023-09-02T09:27:43.564Z,78.53
2023-09-02T09:30:30.970Z,78.39
2023-09-02T09:33:20.396Z,78.43
2023-09-02T09:35:49.080Z,78.57
2023-09-02T09:38:17.403Z,78.75
2023-09-02T09:40:45.712Z,78.98
2023-09-02T09:43:19.070Z,79.19
2023-09-02T09:45:52.922Z,79.05
2023-09-02T09:48:23.518Z,78.68
2023-09-02T09:50:53.289Z,78.41
2023-09-02T09:53:21.954Z,78.45
2023-09-02T09:55:51.295Z,78.56
2023-09-02T09:58:25.862Z,78.38
2023-09-02T10:00:54.179Z,78.25
2023-09-02T10:03:30.903Z,78.19
2023-09-02T10:06:00.549Z,77.95
2023-09-02T10:08:29.355Z,78.34
2023-09-02T10:10:57.829Z,78.31
2023-09-02T10:13:26.763Z,77.85
2023-09-02T10:15:55.493Z,77.61
2023-09-02T10:18:27.502Z,77.93
2023-09-02T10:20:56.573Z,77.81
2023-09-02T10:23:24.939Z,77.99
2023-09-02T10:26:09.736Z,77.70
2023-09-02T10:28:39.772Z,77.63
2023-09-02T10:31:21.872Z,76.76
2023-09-02T10:33:53.549Z,76.77
2023-09-02T10:36:24.516Z,76.01
2023-09-02T10:38:53.890Z,76.07
2023-09-02T10:41:26.109Z,75.91
2023-09-02T10:43:56.702Z,75.04
2023-09-02T10:46:26.659Z,74.89
2023-09-02T10:48:55.550Z,74.64
2023-09-02T10:51:24.506Z,74.16
2023-09-02T10:54:01.748Z,73.98
2023-09-02T10:56:35.899Z,74.02
2023-09-02T10:59:06.589Z,73.91
2023-09-02T11:01:51.189Z,73.60
2023-09-02T11:04:57.116Z,73.55
2023-09-02T11:07:28.517Z,73.66
2023-09-02T11:10:02.066Z,73.64
2023-09-02T11:12:30.624Z,73.72
2023-09-02T11:15:11.317Z,72.92
2023-09-02T11:17:42.047Z,71.99
2023-09-02T11:20:13.102Z,71.36
2023-09-02T11:22:54.600Z,71.15
2023-09-02T11:25:42.436Z,70.83
2023-09-02T11:28:27.871Z,70.40
2023-09-02T11:31:04.138Z,70.24
2023-09-02T11:33:35.149Z,69.95
2023-09-02T11:36:18.200Z,69.76
2023-09-02T11:38:47.088Z,69.59
2023-09-02T11:41:27.241Z,69.58
2023-09-02T11:43:56.178Z,69.39
2023-09-02T11:46:24.618Z,69.41
2023-09-02T11:48:53.198Z,69.33
2023-09-02T11:51:21.555Z,69.13
2023-09-02T11:53:56.248Z,68.99
2023-09-02T11:56:24.909Z,68.85
2023-09-02T11:58:53.184Z,68.89
2023-09-02T12:01:22.497Z,68.93
2023-09-02T12:03:50.868Z,68.90
2023-09-02T12:06:19.546Z,68.71
2023-09-02T12:08:48.036Z,68.44
2023-09-02T12:11:17.470Z,68.52
2023-09-02T12:13:45.983Z,68.71
2023-09-02T12:16:20.180Z,68.61
2023-09-02T12:18:50.836Z,68.37
2023-09-02T12:21:19.680Z,68.40
2023-09-02T12:23:48.114Z,68.15
2023-09-02T12:26:17.045Z,67.87
2023-09-02T12:28:49.289Z,67.61
2023-09-02T12:31:18.705Z,67.66
2023-09-02T12:33:53.625Z,67.39
2023-09-02T12:36:22.117Z,67.34
2023-09-02T12:38:54.498Z,66.73
2023-09-02T12:41:22.945Z,65.19
2023-09-02T12:43:51.264Z,65.22
2023-09-02T12:46:22.013Z,65.29
2023-09-02T12:48:51.154Z,64.46
2023-09-02T12:51:24.024Z,63.46
2023-09-02T12:53:52.387Z,62.02
2023-09-02T12:56:20.889Z,61.49
2023-09-02T12:58:50.373Z,59.99
2023-09-02T13:01:18.676Z,61.14
2023-09-02T13:03:47.140Z,60.80
2023-09-02T13:06:16.067Z,60.48
2023-09-02T13:08:44.723Z,60.07
2023-09-02T13:11:13.133Z,60.16
2023-09-02T13:13:42.425Z,60.21
2023-09-02T13:16:11.119Z,58.67
2023-09-02T13:18:39.608Z,58.04
2023-09-02T13:21:08.343Z,58.20
2023-09-02T13:23:37.104Z,59.07
2023-09-02T13:26:14.157Z,58.58
2023-09-02T13:28:42.340Z,59.01
2023-09-02T13:31:10.755Z,58.59
2023-09-02T13:33:43.479Z,58.26
2023-09-02T13:36:13.688Z,57.47
2023-09-02T13:38:42.246Z,57.42
2023-09-02T13:41:11.151Z,57.09
2023-09-02T13:43:40.595Z,57.00
2023-09-02T13:46:08.976Z,56.54
2023-09-02T13:48:37.891Z,56.52
2023-09-02T13:51:06.557Z,56.36
2023-09-02T13:53:35.217Z,56.06
2023-09-02T13:56:03.678Z,55.70
2023-09-02T13:58:35.942Z,55.20
2023-09-02T14:01:05.207Z,53.99
2023-09-02T14:03:34.059Z,53.27
2023-09-02T14:06:04.668Z,53.89
2023-09-02T14:08:38.383Z,54.27
2023-09-02T14:11:08.460Z,54.39
2023-09-02T14:13:42.000Z,54.28
2023-09-02T14:16:10.865Z,54.07
2023-09-02T14:18:39.912Z,53.77
2023-09-02T14:21:08.989Z,53.38
2023-09-02T14:23:37.309Z,53.48
2023-09-02T14:26:05.613Z,53.13
2023-09-02T14:28:34.003Z,52.44
2023-09-02T14:31:02.874Z,52.31
2023-09-02T14:33:31.598Z,51.74
2023-09-02T14:36:00.003Z,51.64
2023-09-02T14:38:28.388Z,51.66
2023-09-02T14:40:56.977Z,51.52
2023-09-02T14:43:25.486Z,51.91
2023-09-02T14:45:54.162Z,51.63
2023-09-02T14:48:25.384Z,51.81
2023-09-02T14:50:54.340Z,51.53
2023-09-02T14:53:23.305Z,51.56
2023-09-02T14:55:53.184Z,51.46
2023-09-02T14:58:21.760Z,51.25
2023-09-02T15:00:55.633Z,51.53
2023-09-02T15:03:27.688Z,51.72
2023-09-02T15:05:56.960Z,51.53
2023-09-02T15:08:25.605Z,51.48
2023-09-02T15:10:54.064Z,51.99
2023-09-02T15:13:22.589Z,52.27
2023-09-02T15:15:50.935Z,52.49
2023-09-02T15:18:26.695Z,52.55
2023-09-02T15:20:56.257Z,52.60
2023-09-02T15:23:24.498Z,52.93
2023-09-02T15:26:01.648Z,53.31
2023-09-02T15:28:30.429Z,53.50
2023-09-02T15:31:03.709Z,53.77
2023-09-02T15:33:32.620Z,54.01
2023-09-02T15:36:06.143Z,54.12
2023-09-02T15:38:34.418Z,54.31
2023-09-02T15:41:03.621Z,54.48
2023-09-02T15:43:38.565Z,54.56
2023-09-02T15:46:07.564Z,55.00
2023-09-02T15:48:35.960Z,55.50
2023-09-02T15:51:04.296Z,55.10
2023-09-02T15:53:33.957Z,54.67
2023-09-02T15:56:02.375Z,55.04
2023-09-02T15:58:31.009Z,55.21
2023-09-02T16:00:59.508Z,55.51
2023-09-02T16:03:28.564Z,55.55
2023-09-02T16:05:57.086Z,56.02
2023-09-02T16:08:25.352Z,55.94
2023-09-02T16:10:55.955Z,56.17
2023-09-02T16:13:25.170Z,56.13
2023-09-02T16:15:53.763Z,56.59
2023-09-02T16:18:22.174Z,56.82
2023-09-02T16:20:50.909Z,57.24
2023-09-02T16:23:19.809Z,57.31
2023-09-02T16:25:48.784Z,57.68
2023-09-02T16:28:17.398Z,57.86
2023-09-02T16:30:46.250Z,58.14
2023-09-02T16:33:14.762Z,58.07
2023-09-02T16:35:43.258Z,58.16
2023-09-02T16:38:13.607Z,58.52
2023-09-02T16:40:41.907Z,58.81
2023-09-02T16:43:11.268Z,59.07
2023-09-02T16:45:39.785Z,59.39
2023-09-02T16:48:15.849Z,59.66
2023-09-02T16:50:47.388Z,59.88
2023-09-02T16:53:17.998Z,59.97
2023-09-02T16:55:48.737Z,60.06
2023-09-02T16:58:20.937Z,60.47
2023-09-02T17:00:49.651Z,60.67
2023-09-02T17:03:19.588Z,60.86
2023-09-02T17:05:48.619Z,60.91
2023-09-02T17:08:23.391Z,61.24
2023-09-02T17:10:52.132Z,61.36
2023-09-02T17:13:20.891Z,61.46
2023-09-02T17:15:49.705Z,61.69
2023-09-02T17:18:18.500Z,61.74
2023-09-02T17:20:47.300Z,61.94
2023-09-02T17:23:18.947Z,61.94
2023-09-02T17:25:48.484Z,62.18
2023-09-02T17:28:20.754Z,62.36
2023-09-02T17:31:02.683Z,62.39
2023-09-02T17:33:34.231Z,62.40
2023-09-02T17:36:02.881Z,62.45
2023-09-02T17:38:31.268Z,62.41
2023-09-02T17:40:59.820Z,62.52
2023-09-02T17:43:28.181Z,62.64
2023-09-02T17:45:56.470Z,62.74
2023-09-02T17:48:24.990Z,62.67
2023-09-02T17:50:53.534Z,62.87
2023-09-02T17:53:21.849Z,62.98
2023-09-02T17:55:50.307Z,63.17
2023-09-02T17:58:18.859Z,62.75
2023-09-02T18:00:47.572Z,62.86
2023-09-02T18:03:16.625Z,62.98
2023-09-02T18:05:46.073Z,63.08
2023-09-02T18:08:15.573Z,63.21
2023-09-02T18:10:44.184Z,63.33
2023-09-02T18:13:13.087Z,63.40
2023-09-02T18:15:41.882Z,63.64
2023-09-02T18:18:10.647Z,63.71
2023-09-02T18:20:39.195Z,63.90
2023-09-02T18:23:07.499Z,64.12
2023-09-02T18:25:35.905Z,63.94
2023-09-02T18:28:04.753Z,64.02
2023-09-02T18:30:33.102Z,64.07
2023-09-02T18:33:01.535Z,64.05
2023-09-02T18:35:29.889Z,63.98
2023-09-02T18:37:58.153Z,64.02
2023-09-02T18:40:26.703Z,64.13
2023-09-02T18:42:54.963Z,64.06
2023-09-02T18:45:23.274Z,63.90
2023-09-02T18:47:51.720Z,63.92
2023-09-02T18:50:20.017Z,63.96
2023-09-02T18:52:48.430Z,63.95
2023-09-02T18:55:16.903Z,64.00
2023-09-02T18:57:45.157Z,64.03
2023-09-02T19:00:14.981Z,63.98
2023-09-02T19:02:43.530Z,63.98
2023-09-02T19:05:12.775Z,64.08
2023-09-02T19:07:41.046Z,64.15
2023-09-02T19:10:10.329Z,64.28
2023-09-02T19:12:38.867Z,64.21
2023-09-02T19:15:07.757Z,64.23
2023-09-02T19:17:36.205Z,64.28
2023-09-02T19:20:06.050Z,64.47
2023-09-02T19:22:45.747Z,64.49
2023-09-02T19:25:16.755Z,64.64
2023-09-02T19:27:47.423Z,64.80
2023-09-02T19:30:15.702Z,64.81
2023-09-02T19:32:44.640Z,64.93
2023-09-02T19:35:13.067Z,65.21
2023-09-02T19:37:46.493Z,65.34
2023-09-02T19:40:17.603Z,65.50
2023-09-02T19:42:55.113Z,65.68
2023-09-02T19:45:25.265Z,65.86
2023-09-02T19:47:53.738Z,66.10
2023-09-02T19:50:23.821Z,66.16
2023-09-02T19:52:52.497Z,66.09
2023-09-02T19:55:20.782Z,66.20
2023-09-02T19:57:49.147Z,66.41
2023-09-02T20:00:17.740Z,66.58
2023-09-02T20:02:46.793Z,66.90
2023-09-02T20:05:15.718Z,67.03
2023-09-02T20:07:44.343Z,67.15
2023-09-02T20:10:12.653Z,67.49
2023-09-02T20:12:40.903Z,67.65
2023-09-02T20:15:09.795Z,67.79
2023-09-02T20:17:38.921Z,68.09
2023-09-02T20:20:08.304Z,68.12
2023-09-02T20:22:37.246Z,68.39
2023-09-02T20:25:05.665Z,68.37
2023-09-02T20:27:34.011Z,68.47
2023-09-02T20:30:03.175Z,68.46
2023-09-02T20:32:31.974Z,68.45
2023-09-02T20:35:00.223Z,68.51
2023-09-02T20:37:28.680Z,68.57
2023-09-02T20:39:57.519Z,68.29
2023-09-02T20:42:25.950Z,68.23
2023-09-02T20:44:54.460Z,68.32
2023-09-02T20:47:22.912Z,68.43
2023-09-02T20:49:51.724Z,68.46
2023-09-02T20:52:22.014Z,68.47
2023-09-02T20:54:55.874Z,68.52
2023-09-02T20:57:24.832Z,68.66
2023-09-02T20:59:54.694Z,68.76
2023-09-02T21:02:23.441Z,68.78
2023-09-02T21:04:51.985Z,68.72
2023-09-02T21:07:20.279Z,68.80
2023-09-02T21:09:48.801Z,68.96
2023-09-02T21:12:17.803Z,69.07
2023-09-02T21:14:46.212Z,68.95
2023-09-02T21:17:14.429Z,68.81
2023-09-02T21:19:43.052Z,69.44
2023-09-02T21:22:11.808Z,70.05
2023-09-02T21:24:40.259Z,70.60
2023-09-02T21:27:08.896Z,71.28
2023-09-02T21:29:37.277Z,71.75
2023-09-02T21:32:05.708Z,71.83
2023-09-02T21:34:34.063Z,72.14
2023-09-02T21:37:02.769Z,72.40
2023-09-02T21:39:33.848Z,72.73
2023-09-02T21:42:02.188Z,73.06
2023-09-02T21:44:30.526Z,73.37
2023-09-02T21:46:58.885Z,73.67
2023-09-02T21:49:27.139Z,73.85
2023-09-02T21:51:55.529Z,74.08
2023-09-02T21:54:23.998Z,74.35
2023-09-02T21:56:52.230Z,74.45
2023-09-02T21:59:20.588Z,74.47
2023-09-02T22:01:49.205Z,74.48
2023-09-02T22:04:17.718Z,74.65
2023-09-02T22:06:46.150Z,74.83
2023-09-02T22:09:14.739Z,75.04
2023-09-02T22:11:43.023Z,75.10
2023-09-02T22:14:11.453Z,75.13
2023-09-02T22:16:40.765Z,75.17
2023-09-02T22:19:10.309Z,75.37
2023-09-02T22:21:39.442Z,75.44
2023-09-02T22:24:09.209Z,75.54
2023-09-02T22:26:37.428Z,75.49
2023-09-02T22:29:06.368Z,75.37
2023-09-02T22:31:35.037Z,75.61
2023-09-02T22:34:03.519Z,75.80
2023-09-02T22:36:31.840Z,75.85
2023-09-02T22:39:00.763Z,76.33
2023-09-02T22:41:29.293Z,76.45
2023-09-02T22:43:57.553Z,76.72
2023-09-02T22:46:25.815Z,76.87
2023-09-02T22:48:54.460Z,77.04
2023-09-02T22:51:22.906Z,77.16
2023-09-02T22:53:51.284Z,77.26
2023-09-02T22:56:19.726Z,77.26
2023-09-02T22:58:48.201Z,77.34
2023-09-02T23:01:16.892Z,77.39
2023-09-02T23:03:45.449Z,77.52
2023-09-02T23:06:14.629Z,77.74
2023-09-02T23:08:45.117Z,78.12
2023-09-02T23:11:13.962Z,78.31
2023-09-02T23:13:42.361Z,78.63
2023-09-02T23:16:10.970Z,78.92
2023-09-02T23:18:39.346Z,78.92
2023-09-02T23:21:12.803Z,79.04
2023-09-02T23:23:41.275Z,79.15
2023-09-02T23:26:10.117Z,79.48
2023-09-02T23:28:40.435Z,79.38
2023-09-02T23:31:09.299Z,79.38
2023-09-02T23:33:37.752Z,79.20
2023-09-02T23:36:06.707Z,78.95
2023-09-02T23:38:35.006Z,79.32
2023-09-02T23:41:03.280Z,79.33
2023-09-02T23:43:31.969Z,79.52
2023-09-02T23:46:00.904Z,79.28
2023-09-02T23:48:29.673Z,79.44
2023-09-02T23:50:59.752Z,79.87
2023-09-02T23:53:28.364Z,80.23
2023-09-02T23:55:57.766Z,80.31
2023-09-02T23:58:26.641Z,80.23
